Airfield :
LOGIN :

Register | Disclaimer

   EN    FR    IT 

 










Legend :    VFR   Marginal VFR   IFR   Intensive IFR   Very Intensive IFR
Visi :
Ceiling :
>= 8 km
>= 3000ft
5 to 8 km
1000 to 3000 ft
1500m to 5 km
500 to 1000 ft
800 to 1500m
200 to 500 ft
< 800m
< 200 ft
Symbols :   Thunderstorms  Fog  Heavy snow  Heavy precipitations  Wind > 20 kt
SIGMETs :     Misc.  Thunderstorms  Icing  Turbulence  Mountain Waves  Volcanic Ashes






- Airport Elevation : 158 ft
- IATA code : QAR


EHDL - Deelen Airbase

CURRENT METAR :
  • 011525Z AUTO 28016KT 210V350 9999 -RA SCT015CB BKN020 OVC023 07/04 Q1017 RERA REDZ BLACKWHT

EXPIRED METARs :
  • 011455Z AUTO 27017KT 200V330 9999 SCT023 SCT033 BKN038 08/03 Q1017 BLACKWHT
  • 011425Z AUTO 27018KT 220V350 9999 FEW024 SCT029 BKN032 08/03 Q1017 BLACKBLU
  • 011355Z AUTO 27016KT 220V360 9999 SCT023/// BKN026/// OVC031/// 08/03 Q1016 BLACKWHT
  • 011325Z AUTO 27018G28KT 190V330 9999 -RA BKN023 OVC027 08/03 Q1016 RE// BLACKWHT
  • 011255Z AUTO 27017G27KT 210V350 9999 BKN022/// OVC026/// 08/03 Q1016 WHT

TAF TAF EHDL
Valid from the 01 at 14:00 until the 02 at 02:00 UTC


011345Z 0114/0202 27016G28KT 9999 SCT025 SCT028
TEMPO 0114/0202 4000 RA SCT012 BKN015
PROB40
TEMPO 0114/0120 4000 RA SHRA FEW012 SCT016CB
BECMG 0115/0118 28013KT
PROB40
TEMPO 0123/0202 SCT006 BKN008



MET'MAP, your aeronautical weather chart ! - Copyright ORBIFLY December 2007 - Disclaimer

ORBIFLY MET'MAP TEAM :

Programming & Development : Alexandra Zaïnal
Original concept : Baudouin d'Aumeries
Technical & hardware support : Manuel Goepfert
Assistance : Marc-Olivier Méhu




SOURCES & CREDITS :

   NOAA